NGS4065 KPHX-KABQ
Flight info
| Callsign | NGS4065 |
|---|---|
| Flight time | 0h 41m |
| Altitude | 35000 |
| Route | FORPE1 SJN TMALE BRRTO1 |
| Aircraft | E175/M-SDE3GILORVW/S |
Departure
| Time | 2026-05-03 20:37 |
|---|---|
| Airport | Phoenix Sky Harbor International Airport (KPHX) |
Arrival
| Time | 2026-05-03 21:19 |
|---|---|
| Airport | Albuquerque International Sunport (KABQ) |
| Time | Latitude | Longitude | Altitude | Speed | Heading |
|---|---|---|---|---|---|
| 2026-05-03 20:15 | 33.43687 | -112.00121 | 1122 ft | 0 kts | 270° |
| 2026-05-03 20:24 | 33.43686 | -112.00095 | 1122 ft | 4 kts | 276° |
| 2026-05-03 20:24 | 33.43676 | -112.00075 | 1120 ft | 4 kts | 358° |
| 2026-05-03 20:24 | 33.43691 | -112.00075 | 1120 ft | 3 kts | 360° |
| 2026-05-03 20:25 | 33.43696 | -112.00075 | 1122 ft | 0 kts | 360° |
| 2026-05-03 20:28 | 33.43700 | -112.00075 | 1122 ft | 2 kts | 0° |
| 2026-05-03 20:29 | 33.43739 | -112.00074 | 1122 ft | 10 kts | 0° |
| 2026-05-03 20:29 | 33.43823 | -112.00075 | 1117 ft | 13 kts | 0° |
| 2026-05-03 20:29 | 33.43885 | -112.00084 | 1121 ft | 4 kts | 318° |
| 2026-05-03 20:29 | 33.43898 | -112.00103 | 1123 ft | 1 kts | 298° |
| 2026-05-03 20:30 | 33.43903 | -112.00126 | 1120 ft | 6 kts | 280° |
| 2026-05-03 20:30 | 33.43906 | -112.00193 | 1123 ft | 12 kts | 269° |
| 2026-05-03 20:30 | 33.43900 | -112.00336 | 1123 ft | 19 kts | 247° |
| 2026-05-03 20:30 | 33.43779 | -112.00382 | 1117 ft | 22 kts | 178° |
| 2026-05-03 20:31 | 33.43596 | -112.00380 | 1119 ft | 27 kts | 180° |
| 2026-05-03 20:31 | 33.43410 | -112.00379 | 1122 ft | 24 kts | 179° |
| 2026-05-03 20:31 | 33.43370 | -112.00379 | 1119 ft | 8 kts | 180° |
| 2026-05-03 20:31 | 33.43339 | -112.00380 | 1119 ft | 4 kts | 182° |
| 2026-05-03 20:32 | 33.43288 | -112.00381 | 1118 ft | 11 kts | 179° |
| 2026-05-03 20:32 | 33.43219 | -112.00429 | 1125 ft | 14 kts | 257° |
| 2026-05-03 20:32 | 33.43216 | -112.00584 | 1125 ft | 23 kts | 269° |
| 2026-05-03 20:32 | 33.43215 | -112.00800 | 1124 ft | 29 kts | 270° |
| 2026-05-03 20:33 | 33.43214 | -112.00970 | 1124 ft | 33 kts | 270° |
| 2026-05-03 20:33 | 33.43214 | -112.01265 | 1119 ft | 38 kts | 268° |
| 2026-05-03 20:33 | 33.43217 | -112.01571 | 1123 ft | 35 kts | 269° |
| 2026-05-03 20:33 | 33.43214 | -112.01848 | 1120 ft | 32 kts | 269° |
| 2026-05-03 20:34 | 33.43216 | -112.02105 | 1119 ft | 30 kts | 270° |
| 2026-05-03 20:34 | 33.43215 | -112.02434 | 1123 ft | 26 kts | 269° |
| 2026-05-03 20:34 | 33.43215 | -112.02627 | 1123 ft | 14 kts | 270° |
| 2026-05-03 20:34 | 33.43204 | -112.02680 | 1123 ft | 0 kts | 229° |
| 2026-05-03 20:35 | 33.43166 | -112.02701 | 1120 ft | 10 kts | 184° |
| 2026-05-03 20:36 | 33.43110 | -112.02664 | 1123 ft | 9 kts | 112° |
| 2026-05-03 20:36 | 33.43107 | -112.02634 | 1121 ft | 0 kts | 91° |
| 2026-05-03 20:36 | 33.43106 | -112.02439 | 1123 ft | 61 kts | 89° |
| 2026-05-03 20:36 | 33.43106 | -112.01595 | 1125 ft | 139 kts | 86° |
| 2026-05-03 20:37 | 33.43159 | -112.00320 | 1645 ft | 166 kts | 89° |
| 2026-05-03 20:37 | 33.43245 | -111.98919 | 2532 ft | 180 kts | 88° |
| 2026-05-03 20:37 | 33.43457 | -111.97321 | 3246 ft | 210 kts | 83° |
| 2026-05-03 20:37 | 33.43722 | -111.95491 | 4103 ft | 233 kts | 86° |
| 2026-05-03 20:38 | 33.43971 | -111.93591 | 5484 ft | 230 kts | 83° |
| 2026-05-03 20:38 | 33.44260 | -111.91627 | 6383 ft | 256 kts | 83° |
| 2026-05-03 20:38 | 33.44514 | -111.89444 | 7292 ft | 267 kts | 88° |
| 2026-05-03 20:38 | 33.44767 | -111.87199 | 8238 ft | 283 kts | 83° |
| 2026-05-03 20:39 | 33.45262 | -111.84848 | 9178 ft | 296 kts | 75° |
| 2026-05-03 20:39 | 33.45969 | -111.82531 | 10197 ft | 304 kts | 70° |
| 2026-05-03 20:39 | 33.46861 | -111.80162 | 10880 ft | 325 kts | 68° |
| 2026-05-03 20:39 | 33.47901 | -111.77627 | 11263 ft | 353 kts | 66° |
| 2026-05-03 20:40 | 33.49028 | -111.74935 | 11953 ft | 367 kts | 66° |
| 2026-05-03 20:40 | 33.50169 | -111.72188 | 13077 ft | 369 kts | 66° |
| 2026-05-03 20:40 | 33.51313 | -111.69404 | 14075 ft | 376 kts | 66° |
| 2026-05-03 20:40 | 33.52479 | -111.66558 | 14932 ft | 385 kts | 65° |
| 2026-05-03 20:41 | 33.53672 | -111.63649 | 15895 ft | 392 kts | 65° |
| 2026-05-03 20:41 | 33.54885 | -111.60684 | 16754 ft | 400 kts | 65° |
| 2026-05-03 20:41 | 33.56105 | -111.57705 | 17586 ft | 407 kts | 64° |
| 2026-05-03 20:41 | 33.57360 | -111.54627 | 18345 ft | 414 kts | 64° |
| 2026-05-03 20:42 | 33.58643 | -111.51492 | 18976 ft | 422 kts | 64° |
| 2026-05-03 20:42 | 33.59956 | -111.48306 | 19638 ft | 430 kts | 64° |
| 2026-05-03 20:42 | 33.61290 | -111.45063 | 20330 ft | 437 kts | 64° |
| 2026-05-03 20:42 | 33.62642 | -111.41764 | 21039 ft | 443 kts | 63° |
| 2026-05-03 20:43 | 33.64012 | -111.38424 | 21704 ft | 450 kts | 63° |
| 2026-05-03 20:43 | 33.65405 | -111.35029 | 22335 ft | 456 kts | 63° |
| 2026-05-03 20:43 | 33.66819 | -111.31589 | 22997 ft | 460 kts | 63° |
| 2026-05-03 20:43 | 33.68221 | -111.28172 | 23444 ft | 468 kts | 63° |
| 2026-05-03 20:44 | 33.69643 | -111.24649 | 24127 ft | 465 kts | 65° |
| 2026-05-03 20:44 | 33.70913 | -111.21085 | 24828 ft | 465 kts | 66° |
| 2026-05-03 20:44 | 33.72158 | -111.17480 | 25378 ft | 469 kts | 66° |
| 2026-05-03 20:44 | 33.73418 | -111.13871 | 25908 ft | 474 kts | 66° |
| 2026-05-03 20:45 | 33.74700 | -111.10205 | 26444 ft | 478 kts | 65° |
| 2026-05-03 20:45 | 33.76017 | -111.06486 | 26914 ft | 483 kts | 65° |
| 2026-05-03 20:45 | 33.77347 | -111.02762 | 27359 ft | 488 kts | 64° |
| 2026-05-03 20:45 | 33.78686 | -110.99008 | 27933 ft | 490 kts | 64° |
| 2026-05-03 20:46 | 33.80028 | -110.95237 | 28514 ft | 490 kts | 64° |
| 2026-05-03 20:46 | 33.81341 | -110.91539 | 29129 ft | 490 kts | 64° |
| 2026-05-03 20:46 | 33.82682 | -110.87746 | 29631 ft | 492 kts | 64° |
| 2026-05-03 20:46 | 33.84013 | -110.83969 | 30085 ft | 494 kts | 64° |
| 2026-05-03 20:47 | 33.85352 | -110.80174 | 30688 ft | 491 kts | 64° |
| 2026-05-03 20:47 | 33.86683 | -110.76396 | 31199 ft | 491 kts | 63° |
| 2026-05-03 20:47 | 33.88012 | -110.72620 | 31668 ft | 491 kts | 63° |
| 2026-05-03 20:47 | 33.89346 | -110.68832 | 32146 ft | 491 kts | 63° |
| 2026-05-03 20:48 | 33.90681 | -110.65033 | 32662 ft | 490 kts | 63° |
| 2026-05-03 20:48 | 33.91987 | -110.61313 | 33204 ft | 488 kts | 63° |
| 2026-05-03 20:48 | 33.93307 | -110.57551 | 33646 ft | 489 kts | 63° |
| 2026-05-03 20:48 | 33.94629 | -110.53777 | 34056 ft | 489 kts | 63° |
| 2026-05-03 20:49 | 33.95949 | -110.50003 | 34416 ft | 488 kts | 63° |
| 2026-05-03 20:49 | 33.97267 | -110.46232 | 34819 ft | 488 kts | 63° |
| 2026-05-03 20:49 | 33.98579 | -110.42470 | 35089 ft | 491 kts | 63° |
| 2026-05-03 20:50 | 34.01241 | -110.34836 | 35016 ft | 496 kts | 63° |
| 2026-05-03 20:50 | 34.03883 | -110.27239 | 34966 ft | 494 kts | 63° |
| 2026-05-03 20:51 | 34.06517 | -110.19639 | 35046 ft | 494 kts | 63° |
| 2026-05-03 20:51 | 34.09162 | -110.11977 | 35070 ft | 494 kts | 63° |
| 2026-05-03 20:52 | 34.11806 | -110.04325 | 35121 ft | 494 kts | 63° |
| 2026-05-03 20:52 | 34.14420 | -109.96740 | 35147 ft | 494 kts | 63° |
| 2026-05-03 20:53 | 34.17050 | -109.89079 | 35131 ft | 494 kts | 63° |
| 2026-05-03 20:53 | 34.19674 | -109.81418 | 35109 ft | 494 kts | 63° |
| 2026-05-03 20:54 | 34.22307 | -109.73712 | 35058 ft | 495 kts | 63° |
| 2026-05-03 20:54 | 34.26223 | -109.62224 | 35014 ft | 495 kts | 63° |
| 2026-05-03 20:55 | 34.28833 | -109.54543 | 35039 ft | 495 kts | 63° |
| 2026-05-03 20:55 | 34.31449 | -109.46824 | 35066 ft | 495 kts | 63° |
| 2026-05-03 20:56 | 34.34036 | -109.39165 | 35074 ft | 495 kts | 63° |
| 2026-05-03 20:56 | 34.36636 | -109.31456 | 35067 ft | 495 kts | 63° |
| 2026-05-03 20:57 | 34.39227 | -109.23755 | 35026 ft | 495 kts | 63° |
| 2026-05-03 20:57 | 34.41786 | -109.15999 | 34964 ft | 497 kts | 69° |
| 2026-05-03 20:58 | 34.42499 | -109.11876 | 34950 ft | 502 kts | 84° |
| 2026-05-03 20:58 | 34.42583 | -109.07726 | 34963 ft | 502 kts | 92° |
| 2026-05-03 20:58 | 34.42230 | -108.99261 | 34911 ft | 501 kts | 92° |
| 2026-05-03 20:59 | 34.42077 | -108.90813 | 34931 ft | 502 kts | 91° |
| 2026-05-03 20:59 | 34.41955 | -108.82364 | 34917 ft | 502 kts | 91° |
| 2026-05-03 21:00 | 34.41853 | -108.75340 | 34929 ft | 501 kts | 91° |
| 2026-05-03 21:00 | 34.41703 | -108.65540 | 34923 ft | 500 kts | 90° |
| 2026-05-03 21:01 | 34.42057 | -108.61370 | 34938 ft | 498 kts | 74° |
| 2026-05-03 21:01 | 34.43012 | -108.57354 | 34973 ft | 495 kts | 68° |
| 2026-05-03 21:01 | 34.45146 | -108.49413 | 34910 ft | 495 kts | 69° |
| 2026-05-03 21:02 | 34.47190 | -108.41439 | 34923 ft | 497 kts | 69° |
| 2026-05-03 21:02 | 34.49198 | -108.33451 | 34432 ft | 499 kts | 69° |
| 2026-05-03 21:03 | 34.50201 | -108.29454 | 34007 ft | 496 kts | 69° |
| 2026-05-03 21:03 | 34.51205 | -108.25458 | 33233 ft | 498 kts | 69° |
| 2026-05-03 21:03 | 34.52211 | -108.21435 | 32545 ft | 495 kts | 70° |
| 2026-05-03 21:03 | 34.53189 | -108.17465 | 31907 ft | 492 kts | 70° |
| 2026-05-03 21:04 | 34.54167 | -108.13488 | 31225 ft | 491 kts | 70° |
| 2026-05-03 21:04 | 34.55144 | -108.09516 | 30622 ft | 489 kts | 70° |
| 2026-05-03 21:04 | 34.56119 | -108.05580 | 29930 ft | 491 kts | 70° |
| 2026-05-03 21:04 | 34.57095 | -108.01644 | 29309 ft | 489 kts | 71° |
| 2026-05-03 21:05 | 34.58071 | -107.97693 | 28635 ft | 489 kts | 71° |
| 2026-05-03 21:05 | 34.59047 | -107.93741 | 27998 ft | 487 kts | 71° |
| 2026-05-03 21:05 | 34.60011 | -107.89827 | 27358 ft | 482 kts | 71° |
| 2026-05-03 21:05 | 34.60965 | -107.85950 | 26724 ft | 476 kts | 71° |
| 2026-05-03 21:06 | 34.61902 | -107.82130 | 26094 ft | 469 kts | 71° |
| 2026-05-03 21:06 | 34.63114 | -107.78512 | 25488 ft | 457 kts | 61° |
| 2026-05-03 21:06 | 34.64548 | -107.75161 | 24870 ft | 450 kts | 58° |
| 2026-05-03 21:06 | 34.66027 | -107.71853 | 24282 ft | 444 kts | 58° |
| 2026-05-03 21:07 | 34.67493 | -107.68565 | 23703 ft | 439 kts | 59° |
| 2026-05-03 21:07 | 34.68906 | -107.65303 | 23078 ft | 433 kts | 59° |
| 2026-05-03 21:07 | 34.70281 | -107.62106 | 22558 ft | 423 kts | 60° |
| 2026-05-03 21:07 | 34.71633 | -107.58958 | 21991 ft | 416 kts | 60° |
| 2026-05-03 21:08 | 34.72959 | -107.55870 | 21456 ft | 409 kts | 60° |
| 2026-05-03 21:08 | 34.74265 | -107.52827 | 20915 ft | 402 kts | 60° |
| 2026-05-03 21:08 | 34.75548 | -107.49835 | 20393 ft | 397 kts | 60° |
| 2026-05-03 21:08 | 34.76797 | -107.46918 | 19867 ft | 392 kts | 60° |
| 2026-05-03 21:09 | 34.78053 | -107.43988 | 19368 ft | 388 kts | 60° |
| 2026-05-03 21:09 | 34.79287 | -107.41103 | 18858 ft | 384 kts | 60° |
| 2026-05-03 21:09 | 34.80517 | -107.38228 | 18341 ft | 383 kts | 60° |
| 2026-05-03 21:09 | 34.81752 | -107.35339 | 17816 ft | 383 kts | 60° |
| 2026-05-03 21:10 | 34.82976 | -107.32467 | 17348 ft | 381 kts | 60° |
| 2026-05-03 21:10 | 34.84190 | -107.29616 | 16831 ft | 378 kts | 60° |
| 2026-05-03 21:10 | 34.85388 | -107.26788 | 16340 ft | 374 kts | 61° |
| 2026-05-03 21:10 | 34.86533 | -107.24012 | 15851 ft | 370 kts | 61° |
| 2026-05-03 21:11 | 34.87683 | -107.21222 | 15319 ft | 368 kts | 61° |
| 2026-05-03 21:11 | 34.88832 | -107.18437 | 14726 ft | 366 kts | 61° |
| 2026-05-03 21:11 | 34.89949 | -107.15724 | 14225 ft | 348 kts | 61° |
| 2026-05-03 21:11 | 34.91015 | -107.13172 | 13788 ft | 331 kts | 60° |
| 2026-05-03 21:12 | 34.92076 | -107.10688 | 13386 ft | 329 kts | 60° |
| 2026-05-03 21:12 | 34.93132 | -107.08223 | 12940 ft | 328 kts | 60° |
| 2026-05-03 21:12 | 34.94180 | -107.05771 | 12497 ft | 324 kts | 61° |
| 2026-05-03 21:12 | 34.95212 | -107.03351 | 12076 ft | 320 kts | 60° |
| 2026-05-03 21:13 | 34.96217 | -107.00984 | 11679 ft | 316 kts | 61° |
| 2026-05-03 21:13 | 34.97180 | -106.98590 | 11260 ft | 313 kts | 62° |
| 2026-05-03 21:13 | 34.98119 | -106.96216 | 10845 ft | 309 kts | 62° |
| 2026-05-03 21:13 | 34.99051 | -106.93871 | 10442 ft | 306 kts | 62° |
| 2026-05-03 21:14 | 34.99975 | -106.91550 | 10038 ft | 303 kts | 62° |
| 2026-05-03 21:14 | 35.00892 | -106.89250 | 9629 ft | 300 kts | 62° |
| 2026-05-03 21:14 | 35.01798 | -106.86978 | 9407 ft | 296 kts | 63° |
| 2026-05-03 21:14 | 35.02691 | -106.84738 | 9011 ft | 289 kts | 63° |
| 2026-05-03 21:15 | 35.03531 | -106.82627 | 8613 ft | 272 kts | 63° |
| 2026-05-03 21:15 | 35.04404 | -106.80642 | 8304 ft | 258 kts | 64° |
| 2026-05-03 21:15 | 35.04710 | -106.78515 | 7871 ft | 256 kts | 95° |
| 2026-05-03 21:15 | 35.04493 | -106.76463 | 7674 ft | 236 kts | 97° |
| 2026-05-03 21:16 | 35.04467 | -106.74519 | 7424 ft | 223 kts | 87° |
| 2026-05-03 21:16 | 35.04522 | -106.72668 | 7122 ft | 215 kts | 91° |
| 2026-05-03 21:16 | 35.04482 | -106.70894 | 6887 ft | 203 kts | 94° |
| 2026-05-03 21:16 | 35.04465 | -106.69262 | 6605 ft | 184 kts | 90° |
| 2026-05-03 21:17 | 35.04470 | -106.67804 | 6406 ft | 166 kts | 90° |
| 2026-05-03 21:17 | 35.04464 | -106.66879 | 6246 ft | 158 kts | 90° |
| 2026-05-03 21:17 | 35.04451 | -106.65177 | 5964 ft | 147 kts | 91° |
| 2026-05-03 21:17 | 35.04446 | -106.63952 | 5745 ft | 145 kts | 90° |
| 2026-05-03 21:18 | 35.04445 | -106.62770 | 5492 ft | 146 kts | 91° |
| 2026-05-03 21:18 | 35.04430 | -106.61490 | 5318 ft | 141 kts | 91° |
| 2026-05-03 21:18 | 35.04421 | -106.60419 | 5321 ft | 108 kts | 90° |
| 2026-05-03 21:18 | 35.04414 | -106.59735 | 5318 ft | 63 kts | 92° |
| 2026-05-03 21:19 | 35.04458 | -106.59320 | 5315 ft | 38 kts | 43° |
| 2026-05-03 21:19 | 35.04516 | -106.59179 | 5316 ft | 0 kts | 72° |
| 2026-05-03 21:19 | 35.04519 | -106.59168 | 5319 ft | 5 kts | 73° |
| 2026-05-03 21:19 | 35.04530 | -106.59142 | 5317 ft | 1 kts | 47° |
| 2026-05-03 21:20 | 35.04535 | -106.59137 | 5317 ft | 3 kts | 37° |
| 2026-05-03 21:20 | 35.04577 | -106.59170 | 5316 ft | 13 kts | 283° |
| 2026-05-03 21:20 | 35.04580 | -106.59307 | 5319 ft | 18 kts | 272° |
| 2026-05-03 21:20 | 35.04579 | -106.59454 | 5319 ft | 17 kts | 272° |
| 2026-05-03 21:21 | 35.04580 | -106.59601 | 5319 ft | 18 kts | 268° |
| 2026-05-03 21:21 | 35.04582 | -106.59754 | 5315 ft | 18 kts | 272° |
| 2026-05-03 21:21 | 35.04575 | -106.59917 | 5319 ft | 20 kts | 263° |
| 2026-05-03 21:21 | 35.04569 | -106.60091 | 5319 ft | 22 kts | 268° |
| 2026-05-03 21:22 | 35.04571 | -106.60291 | 5319 ft | 25 kts | 271° |
| 2026-05-03 21:22 | 35.04574 | -106.60518 | 5319 ft | 29 kts | 271° |
| 2026-05-03 21:22 | 35.04579 | -106.60773 | 5317 ft | 32 kts | 269° |
| 2026-05-03 21:22 | 35.04577 | -106.61052 | 5319 ft | 31 kts | 272° |
| 2026-05-03 21:23 | 35.04576 | -106.61289 | 5319 ft | 20 kts | 265° |
| 2026-05-03 21:23 | 35.04553 | -106.61432 | 5317 ft | 15 kts | 264° |
| 2026-05-03 21:23 | 35.04566 | -106.61511 | 5317 ft | 5 kts | 321° |
| 2026-05-03 21:23 | 35.04587 | -106.61524 | 5319 ft | 3 kts | 340° |
| 2026-05-03 21:24 | 35.04618 | -106.61539 | 5314 ft | 6 kts | 338° |
| 2026-05-03 21:24 | 35.04648 | -106.61546 | 5316 ft | 2 kts | 358° |
| 2026-05-03 21:24 | 35.04658 | -106.61545 | 5316 ft | 3 kts | 9° |
| 2026-05-03 21:24 | 35.04667 | -106.61543 | 5316 ft | 1 kts | 9° |
| 2026-05-03 21:25 | 35.04677 | -106.61541 | 5313 ft | 2 kts | 10° |
| 2026-05-03 21:25 | 35.04687 | -106.61539 | 5311 ft | 0 kts | 12° |